sensor_id;sensor_type;location;lat;lon;timestamp;P1;durP1;ratioP1;P2;durP2;ratioP2
13163;SDS011;6647;53.688;10.746;2022-12-10T00:00:03;28.70;;;15.00;;
13163;SDS011;6647;53.688;10.746;2022-12-10T00:01:24;24.45;;;14.98;;
13163;SDS011;6647;53.688;10.746;2022-12-10T00:02:46;29.70;;;15.60;;
13163;SDS011;6647;53.688;10.746;2022-12-10T00:04:07;25.40;;;14.23;;
13163;SDS011;6647;53.688;10.746;2022-12-10T00:05:29;29.02;;;15.38;;
13163;SDS011;6647;53.688;10.746;2022-12-10T00:06:50;26.58;;;15.13;;
13163;SDS011;6647;53.688;10.746;2022-12-10T00:08:11;32.03;;;15.00;;
13163;SDS011;6647;53.688;10.746;2022-12-10T00:09:31;23.60;;;13.75;;
13163;SDS011;6647;53.688;10.746;2022-12-10T00:10:53;28.90;;;15.30;;
13163;SDS011;6647;53.688;10.746;2022-12-10T00:12:13;25.95;;;14.63;;
13163;SDS011;6647;53.688;10.746;2022-12-10T00:13:35;26.38;;;14.60;;
13163;SDS011;6647;53.688;10.746;2022-12-10T00:14:57;26.40;;;13.77;;
13163;SDS011;6647;53.688;10.746;2022-12-10T00:16:18;23.90;;;13.35;;
13163;SDS011;6647;53.688;10.746;2022-12-10T00:17:40;24.98;;;14.73;;
13163;SDS011;6647;53.688;10.746;2022-12-10T00:19:02;25.73;;;13.35;;
13163;SDS011;6647;53.688;10.746;2022-12-10T00:20:23;25.73;;;12.77;;
13163;SDS011;6647;53.688;10.746;2022-12-10T00:21:44;25.88;;;14.63;;
13163;SDS011;6647;53.688;10.746;2022-12-10T00:23:05;23.42;;;11.98;;
13163;SDS011;6647;53.688;10.746;2022-12-10T00:24:26;22.33;;;12.57;;
13163;SDS011;6647;53.688;10.746;2022-12-10T00:25:47;25.38;;;13.32;;
13163;SDS011;6647;53.688;10.746;2022-12-10T00:27:08;23.35;;;13.45;;
13163;SDS011;6647;53.688;10.746;2022-12-10T00:28:29;23.90;;;13.32;;
13163;SDS011;6647;53.688;10.746;2022-12-10T00:29:50;19.65;;;11.93;;
13163;SDS011;6647;53.688;10.746;2022-12-10T00:31:21;18.27;;;11.70;;
13163;SDS011;6647;53.688;10.746;2022-12-10T00:32:45;22.95;;;12.20;;
13163;SDS011;6647;53.688;10.746;2022-12-10T00:34:07;26.10;;;12.73;;
13163;SDS011;6647;53.688;10.746;2022-12-10T00:35:29;22.65;;;13.15;;
13163;SDS011;6647;53.688;10.746;2022-12-10T00:36:50;23.00;;;13.30;;
13163;SDS011;6647;53.688;10.746;2022-12-10T00:38:11;25.52;;;12.93;;
13163;SDS011;6647;53.688;10.746;2022-12-10T00:39:32;22.25;;;13.13;;
13163;SDS011;6647;53.688;10.746;2022-12-10T00:40:53;22.13;;;13.15;;
13163;SDS011;6647;53.688;10.746;2022-12-10T00:42:14;26.90;;;13.13;;
13163;SDS011;6647;53.688;10.746;2022-12-10T00:43:34;22.10;;;11.80;;
13163;SDS011;6647;53.688;10.746;2022-12-10T00:44:55;22.15;;;11.45;;
13163;SDS011;6647;53.688;10.746;2022-12-10T00:46:17;24.08;;;12.20;;
13163;SDS011;6647;53.688;10.746;2022-12-10T00:47:38;17.13;;;10.80;;
13163;SDS011;6647;53.688;10.746;2022-12-10T00:48:59;16.77;;;10.27;;
13163;SDS011;6647;53.688;10.746;2022-12-10T00:50:21;19.25;;;11.30;;
13163;SDS011;6647;53.688;10.746;2022-12-10T00:51:41;19.00;;;11.02;;
13163;SDS011;6647;53.688;10.746;2022-12-10T00:53:02;20.35;;;11.27;;
13163;SDS011;6647;53.688;10.746;2022-12-10T00:54:23;21.25;;;9.85;;
13163;SDS011;6647;53.688;10.746;2022-12-10T00:55:44;15.25;;;9.45;;
13163;SDS011;6647;53.688;10.746;2022-12-10T00:57:05;18.15;;;10.70;;
13163;SDS011;6647;53.688;10.746;2022-12-10T00:58:27;18.75;;;10.65;;
13163;SDS011;6647;53.688;10.746;2022-12-10T00:59:48;15.25;;;9.50;;
13163;SDS011;6647;53.688;10.746;2022-12-10T01:01:11;15.65;;;9.60;;
13163;SDS011;6647;53.688;10.746;2022-12-10T01:02:36;14.07;;;8.63;;
13163;SDS011;6647;53.688;10.746;2022-12-10T01:03:59;16.20;;;9.05;;
13163;SDS011;6647;53.688;10.746;2022-12-10T01:05:22;15.57;;;9.73;;
13163;SDS011;6647;53.688;10.746;2022-12-10T01:06:49;14.98;;;8.60;;
13163;SDS011;6647;53.688;10.746;2022-12-10T01:08:11;17.92;;;9.45;;
13163;SDS011;6647;53.688;10.746;2022-12-10T01:09:32;14.68;;;8.82;;
13163;SDS011;6647;53.688;10.746;2022-12-10T01:10:53;18.25;;;9.00;;
13163;SDS011;6647;53.688;10.746;2022-12-10T01:12:14;15.63;;;8.65;;
13163;SDS011;6647;53.688;10.746;2022-12-10T01:13:36;16.55;;;8.68;;
13163;SDS011;6647;53.688;10.746;2022-12-10T01:14:57;18.02;;;9.68;;
13163;SDS011;6647;53.688;10.746;2022-12-10T01:16:19;16.88;;;8.90;;
13163;SDS011;6647;53.688;10.746;2022-12-10T01:17:41;14.55;;;8.93;;
13163;SDS011;6647;53.688;10.746;2022-12-10T01:19:02;15.93;;;9.93;;
13163;SDS011;6647;53.688;10.746;2022-12-10T01:20:23;14.77;;;8.30;;
13163;SDS011;6647;53.688;10.746;2022-12-10T01:21:44;17.33;;;9.80;;
13163;SDS011;6647;53.688;10.746;2022-12-10T01:23:05;13.05;;;8.38;;
13163;SDS011;6647;53.688;10.746;2022-12-10T01:24:26;18.55;;;10.10;;
13163;SDS011;6647;53.688;10.746;2022-12-10T01:25:48;15.25;;;7.97;;
13163;SDS011;6647;53.688;10.746;2022-12-10T01:27:09;13.43;;;7.85;;
13163;SDS011;6647;53.688;10.746;2022-12-10T01:28:30;11.52;;;8.60;;
13163;SDS011;6647;53.688;10.746;2022-12-10T01:29:52;13.35;;;8.23;;
13163;SDS011;6647;53.688;10.746;2022-12-10T01:31:15;15.32;;;8.68;;
13163;SDS011;6647;53.688;10.746;2022-12-10T01:32:41;13.45;;;8.77;;
13163;SDS011;6647;53.688;10.746;2022-12-10T01:34:02;13.95;;;9.15;;
13163;SDS011;6647;53.688;10.746;2022-12-10T01:35:25;14.20;;;9.35;;
13163;SDS011;6647;53.688;10.746;2022-12-10T01:36:48;13.50;;;8.15;;
13163;SDS011;6647;53.688;10.746;2022-12-10T01:38:11;13.38;;;8.00;;
13163;SDS011;6647;53.688;10.746;2022-12-10T01:39:32;16.80;;;9.20;;
13163;SDS011;6647;53.688;10.746;2022-12-10T01:40:53;14.85;;;9.05;;
13163;SDS011;6647;53.688;10.746;2022-12-10T01:42:14;15.32;;;9.43;;
13163;SDS011;6647;53.688;10.746;2022-12-10T01:43:48;14.52;;;9.77;;
13163;SDS011;6647;53.688;10.746;2022-12-10T01:45:14;14.32;;;8.02;;
13163;SDS011;6647;53.688;10.746;2022-12-10T01:47:57;15.70;;;9.88;;
13163;SDS011;6647;53.688;10.746;2022-12-10T01:49:25;15.93;;;9.75;;
13163;SDS011;6647;53.688;10.746;2022-12-10T01:50:51;17.88;;;10.05;;
13163;SDS011;6647;53.688;10.746;2022-12-10T01:52:12;16.75;;;9.65;;
13163;SDS011;6647;53.688;10.746;2022-12-10T01:53:33;16.83;;;10.07;;
13163;SDS011;6647;53.688;10.746;2022-12-10T01:54:54;18.92;;;9.25;;
13163;SDS011;6647;53.688;10.746;2022-12-10T01:56:16;13.25;;;9.75;;
13163;SDS011;6647;53.688;10.746;2022-12-10T01:57:39;17.50;;;9.52;;
13163;SDS011;6647;53.688;10.746;2022-12-10T01:59:00;14.98;;;9.80;;
13163;SDS011;6647;53.688;10.746;2022-12-10T02:00:21;15.60;;;9.40;;
13163;SDS011;6647;53.688;10.746;2022-12-10T02:01:45;15.90;;;9.30;;
13163;SDS011;6647;53.688;10.746;2022-12-10T02:03:11;17.38;;;9.70;;
13163;SDS011;6647;53.688;10.746;2022-12-10T02:04:47;17.85;;;9.23;;
13163;SDS011;6647;53.688;10.746;2022-12-10T02:06:17;18.50;;;10.60;;
13163;SDS011;6647;53.688;10.746;2022-12-10T02:09:18;15.40;;;10.30;;
13163;SDS011;6647;53.688;10.746;2022-12-10T02:11:05;18.02;;;10.95;;
13163;SDS011;6647;53.688;10.746;2022-12-10T02:12:48;19.25;;;10.68;;
13163;SDS011;6647;53.688;10.746;2022-12-10T02:14:16;16.55;;;10.32;;
13163;SDS011;6647;53.688;10.746;2022-12-10T02:15:59;17.75;;;11.10;;
13163;SDS011;6647;53.688;10.746;2022-12-10T02:18:56;19.52;;;11.38;;
13163;SDS011;6647;53.688;10.746;2022-12-10T02:20:34;17.02;;;9.77;;
13163;SDS011;6647;53.688;10.746;2022-12-10T02:22:00;20.65;;;12.32;;
13163;SDS011;6647;53.688;10.746;2022-12-10T02:24:56;21.63;;;11.85;;
13163;SDS011;6647;53.688;10.746;2022-12-10T02:28:47;23.10;;;12.52;;
13163;SDS011;6647;53.688;10.746;2022-12-10T02:30:23;23.50;;;12.00;;
13163;SDS011;6647;53.688;10.746;2022-12-10T02:31:48;18.35;;;10.15;;
13163;SDS011;6647;53.688;10.746;2022-12-10T02:33:29;18.63;;;11.45;;
13163;SDS011;6647;53.688;10.746;2022-12-10T02:34:54;21.85;;;12.00;;
13163;SDS011;6647;53.688;10.746;2022-12-10T02:36:17;23.95;;;11.68;;
13163;SDS011;6647;53.688;10.746;2022-12-10T02:37:46;19.65;;;12.10;;
13163;SDS011;6647;53.688;10.746;2022-12-10T02:39:11;20.85;;;12.07;;
13163;SDS011;6647;53.688;10.746;2022-12-10T02:40:35;20.55;;;12.43;;
13163;SDS011;6647;53.688;10.746;2022-12-10T02:42:00;21.70;;;12.95;;
13163;SDS011;6647;53.688;10.746;2022-12-10T02:43:23;20.08;;;11.02;;
13163;SDS011;6647;53.688;10.746;2022-12-10T02:44:47;21.42;;;11.18;;
13163;SDS011;6647;53.688;10.746;2022-12-10T02:46:09;23.58;;;12.23;;
13163;SDS011;6647;53.688;10.746;2022-12-10T02:47:30;18.52;;;10.85;;
13163;SDS011;6647;53.688;10.746;2022-12-10T02:48:52;18.90;;;10.80;;
13163;SDS011;6647;53.688;10.746;2022-12-10T02:50:14;15.18;;;10.00;;
13163;SDS011;6647;53.688;10.746;2022-12-10T02:51:36;14.90;;;9.73;;
13163;SDS011;6647;53.688;10.746;2022-12-10T02:52:57;18.65;;;9.23;;
13163;SDS011;6647;53.688;10.746;2022-12-10T02:54:38;17.13;;;10.57;;
13163;SDS011;6647;53.688;10.746;2022-12-10T02:59:37;15.60;;;9.55;;
13163;SDS011;6647;53.688;10.746;2022-12-10T03:01:18;16.40;;;10.32;;
13163;SDS011;6647;53.688;10.746;2022-12-10T03:08:24;18.30;;;10.63;;
13163;SDS011;6647;53.688;10.746;2022-12-10T03:09:47;18.77;;;10.30;;
13163;SDS011;6647;53.688;10.746;2022-12-10T03:11:14;17.38;;;10.25;;
13163;SDS011;6647;53.688;10.746;2022-12-10T03:12:41;16.08;;;10.60;;
13163;SDS011;6647;53.688;10.746;2022-12-10T03:14:10;14.70;;;9.38;;
13163;SDS011;6647;53.688;10.746;2022-12-10T03:15:37;17.85;;;10.70;;
13163;SDS011;6647;53.688;10.746;2022-12-10T03:17:01;18.80;;;10.30;;
13163;SDS011;6647;53.688;10.746;2022-12-10T03:18:24;22.08;;;11.27;;
13163;SDS011;6647;53.688;10.746;2022-12-10T03:19:47;15.88;;;10.20;;
13163;SDS011;6647;53.688;10.746;2022-12-10T03:21:10;16.33;;;8.65;;
13163;SDS011;6647;53.688;10.746;2022-12-10T03:22:32;18.25;;;10.20;;
13163;SDS011;6647;53.688;10.746;2022-12-10T03:23:55;19.85;;;9.85;;
13163;SDS011;6647;53.688;10.746;2022-12-10T03:25:17;16.40;;;9.52;;
13163;SDS011;6647;53.688;10.746;2022-12-10T03:26:41;21.30;;;10.38;;
13163;SDS011;6647;53.688;10.746;2022-12-10T03:28:04;16.65;;;10.40;;
13163;SDS011;6647;53.688;10.746;2022-12-10T03:29:29;18.35;;;10.60;;
13163;SDS011;6647;53.688;10.746;2022-12-10T03:30:55;17.40;;;10.10;;
13163;SDS011;6647;53.688;10.746;2022-12-10T03:32:17;18.23;;;10.02;;
13163;SDS011;6647;53.688;10.746;2022-12-10T03:33:41;20.80;;;11.60;;
13163;SDS011;6647;53.688;10.746;2022-12-10T03:35:03;19.92;;;10.30;;
13163;SDS011;6647;53.688;10.746;2022-12-10T03:36:26;20.42;;;11.60;;
13163;SDS011;6647;53.688;10.746;2022-12-10T03:37:49;17.10;;;11.43;;
13163;SDS011;6647;53.688;10.746;2022-12-10T03:39:10;18.98;;;11.15;;
13163;SDS011;6647;53.688;10.746;2022-12-10T03:40:31;17.35;;;9.98;;
13163;SDS011;6647;53.688;10.746;2022-12-10T03:41:52;17.13;;;10.57;;
13163;SDS011;6647;53.688;10.746;2022-12-10T03:43:13;14.30;;;9.50;;
13163;SDS011;6647;53.688;10.746;2022-12-10T03:44:36;19.50;;;10.70;;
13163;SDS011;6647;53.688;10.746;2022-12-10T03:45:58;17.92;;;11.25;;
13163;SDS011;6647;53.688;10.746;2022-12-10T03:47:19;18.40;;;10.10;;
13163;SDS011;6647;53.688;10.746;2022-12-10T03:48:40;18.30;;;10.88;;
13163;SDS011;6647;53.688;10.746;2022-12-10T03:50:01;17.23;;;11.00;;
13163;SDS011;6647;53.688;10.746;2022-12-10T03:51:23;17.85;;;10.95;;
13163;SDS011;6647;53.688;10.746;2022-12-10T03:52:43;27.73;;;11.73;;
13163;SDS011;6647;53.688;10.746;2022-12-10T03:54:04;16.33;;;10.68;;
13163;SDS011;6647;53.688;10.746;2022-12-10T03:55:25;17.92;;;11.70;;
13163;SDS011;6647;53.688;10.746;2022-12-10T03:56:46;20.27;;;12.57;;
13163;SDS011;6647;53.688;10.746;2022-12-10T03:58:07;21.10;;;12.35;;
13163;SDS011;6647;53.688;10.746;2022-12-10T03:59:28;19.85;;;11.38;;
13163;SDS011;6647;53.688;10.746;2022-12-10T04:00:50;17.88;;;11.50;;
13163;SDS011;6647;53.688;10.746;2022-12-10T04:02:10;21.77;;;12.68;;
13163;SDS011;6647;53.688;10.746;2022-12-10T04:03:34;21.50;;;11.63;;
13163;SDS011;6647;53.688;10.746;2022-12-10T04:04:56;21.85;;;11.40;;
13163;SDS011;6647;53.688;10.746;2022-12-10T04:06:18;18.30;;;11.00;;
13163;SDS011;6647;53.688;10.746;2022-12-10T04:07:39;18.02;;;10.80;;
13163;SDS011;6647;53.688;10.746;2022-12-10T04:09:00;17.35;;;10.68;;
13163;SDS011;6647;53.688;10.746;2022-12-10T04:10:21;19.77;;;11.00;;
13163;SDS011;6647;53.688;10.746;2022-12-10T04:11:42;22.83;;;12.00;;
13163;SDS011;6647;53.688;10.746;2022-12-10T04:13:04;20.05;;;12.00;;
13163;SDS011;6647;53.688;10.746;2022-12-10T04:14:43;17.50;;;11.02;;
13163;SDS011;6647;53.688;10.746;2022-12-10T04:16:23;16.20;;;9.90;;
13163;SDS011;6647;53.688;10.746;2022-12-10T04:17:47;19.33;;;11.27;;
13163;SDS011;6647;53.688;10.746;2022-12-10T04:19:12;15.75;;;10.35;;
13163;SDS011;6647;53.688;10.746;2022-12-10T04:20:34;16.88;;;9.95;;
13163;SDS011;6647;53.688;10.746;2022-12-10T04:22:14;15.40;;;9.70;;
13163;SDS011;6647;53.688;10.746;2022-12-10T04:23:53;20.02;;;11.52;;
13163;SDS011;6647;53.688;10.746;2022-12-10T04:25:32;20.77;;;12.05;;
13163;SDS011;6647;53.688;10.746;2022-12-10T04:27:13;18.13;;;10.82;;
13163;SDS011;6647;53.688;10.746;2022-12-10T04:28:49;23.02;;;12.35;;
13163;SDS011;6647;53.688;10.746;2022-12-10T04:30:11;19.08;;;11.10;;
13163;SDS011;6647;53.688;10.746;2022-12-10T04:31:32;18.85;;;11.70;;
13163;SDS011;6647;53.688;10.746;2022-12-10T04:32:53;18.90;;;11.23;;
13163;SDS011;6647;53.688;10.746;2022-12-10T04:34:14;18.52;;;11.00;;
13163;SDS011;6647;53.688;10.746;2022-12-10T04:35:35;18.70;;;10.65;;
13163;SDS011;6647;53.688;10.746;2022-12-10T04:36:58;17.02;;;10.48;;
13163;SDS011;6647;53.688;10.746;2022-12-10T04:38:20;22.42;;;13.02;;
13163;SDS011;6647;53.688;10.746;2022-12-10T04:39:41;23.70;;;11.50;;
13163;SDS011;6647;53.688;10.746;2022-12-10T04:41:02;17.38;;;11.10;;
13163;SDS011;6647;53.688;10.746;2022-12-10T04:42:35;16.00;;;10.77;;
13163;SDS011;6647;53.688;10.746;2022-12-10T04:43:56;20.02;;;10.38;;
13163;SDS011;6647;53.688;10.746;2022-12-10T04:45:17;17.15;;;10.82;;
13163;SDS011;6647;53.688;10.746;2022-12-10T04:46:38;21.85;;;10.65;;
13163;SDS011;6647;53.688;10.746;2022-12-10T04:47:59;18.85;;;10.82;;
13163;SDS011;6647;53.688;10.746;2022-12-10T04:49:20;15.38;;;10.80;;
13163;SDS011;6647;53.688;10.746;2022-12-10T04:50:41;17.55;;;10.05;;
13163;SDS011;6647;53.688;10.746;2022-12-10T04:52:02;20.13;;;9.75;;
13163;SDS011;6647;53.688;10.746;2022-12-10T04:53:24;17.52;;;11.25;;
13163;SDS011;6647;53.688;10.746;2022-12-10T04:54:44;17.73;;;10.27;;
13163;SDS011;6647;53.688;10.746;2022-12-10T04:56:06;16.05;;;10.07;;
13163;SDS011;6647;53.688;10.746;2022-12-10T04:57:27;18.38;;;10.93;;
13163;SDS011;6647;53.688;10.746;2022-12-10T04:58:48;20.92;;;11.23;;
13163;SDS011;6647;53.688;10.746;2022-12-10T05:00:09;20.38;;;11.30;;
13163;SDS011;6647;53.688;10.746;2022-12-10T05:01:31;24.05;;;11.65;;
13163;SDS011;6647;53.688;10.746;2022-12-10T05:02:52;19.50;;;11.13;;
13163;SDS011;6647;53.688;10.746;2022-12-10T05:04:14;22.10;;;11.65;;
13163;SDS011;6647;53.688;10.746;2022-12-10T05:05:37;19.55;;;10.95;;
13163;SDS011;6647;53.688;10.746;2022-12-10T05:06:57;16.50;;;9.98;;
13163;SDS011;6647;53.688;10.746;2022-12-10T05:08:18;16.10;;;10.25;;
13163;SDS011;6647;53.688;10.746;2022-12-10T05:09:39;19.88;;;11.75;;
13163;SDS011;6647;53.688;10.746;2022-12-10T05:11:01;21.58;;;11.70;;
13163;SDS011;6647;53.688;10.746;2022-12-10T05:12:22;19.90;;;9.88;;
13163;SDS011;6647;53.688;10.746;2022-12-10T05:13:43;17.45;;;10.15;;
13163;SDS011;6647;53.688;10.746;2022-12-10T05:15:05;18.95;;;11.02;;
13163;SDS011;6647;53.688;10.746;2022-12-10T05:16:27;17.13;;;10.20;;
13163;SDS011;6647;53.688;10.746;2022-12-10T05:17:49;15.77;;;9.73;;
13163;SDS011;6647;53.688;10.746;2022-12-10T05:19:10;17.60;;;10.15;;
13163;SDS011;6647;53.688;10.746;2022-12-10T05:20:31;16.38;;;9.55;;
13163;SDS011;6647;53.688;10.746;2022-12-10T05:21:52;15.40;;;10.13;;
13163;SDS011;6647;53.688;10.746;2022-12-10T05:23:32;18.33;;;9.80;;
13163;SDS011;6647;53.688;10.746;2022-12-10T05:24:55;16.02;;;9.40;;
13163;SDS011;6647;53.688;10.746;2022-12-10T05:26:21;18.63;;;10.52;;
13163;SDS011;6647;53.688;10.746;2022-12-10T05:27:43;17.05;;;10.32;;
13163;SDS011;6647;53.688;10.746;2022-12-10T05:29:04;17.40;;;10.15;;
13163;SDS011;6647;53.688;10.746;2022-12-10T05:30:25;21.05;;;10.85;;
13163;SDS011;6647;53.688;10.746;2022-12-10T05:31:47;19.38;;;10.93;;
13163;SDS011;6647;53.688;10.746;2022-12-10T05:33:08;19.45;;;9.98;;
13163;SDS011;6647;53.688;10.746;2022-12-10T05:34:29;19.48;;;11.48;;
13163;SDS011;6647;53.688;10.746;2022-12-10T05:35:56;18.65;;;11.05;;
13163;SDS011;6647;53.688;10.746;2022-12-10T05:37:19;16.00;;;10.10;;
13163;SDS011;6647;53.688;10.746;2022-12-10T05:38:40;22.33;;;10.82;;
13163;SDS011;6647;53.688;10.746;2022-12-10T05:40:02;19.73;;;10.63;;
13163;SDS011;6647;53.688;10.746;2022-12-10T05:41:24;17.40;;;10.95;;
13163;SDS011;6647;53.688;10.746;2022-12-10T05:42:49;19.40;;;10.80;;
13163;SDS011;6647;53.688;10.746;2022-12-10T05:44:10;20.33;;;10.77;;
13163;SDS011;6647;53.688;10.746;2022-12-10T05:45:31;19.08;;;11.35;;
13163;SDS011;6647;53.688;10.746;2022-12-10T05:46:53;20.52;;;11.32;;
13163;SDS011;6647;53.688;10.746;2022-12-10T05:48:14;18.92;;;11.38;;
13163;SDS011;6647;53.688;10.746;2022-12-10T05:49:36;21.75;;;12.13;;
13163;SDS011;6647;53.688;10.746;2022-12-10T05:50:57;22.55;;;12.20;;
13163;SDS011;6647;53.688;10.746;2022-12-10T05:52:18;21.92;;;12.30;;
13163;SDS011;6647;53.688;10.746;2022-12-10T05:53:39;22.65;;;11.75;;
13163;SDS011;6647;53.688;10.746;2022-12-10T05:55:01;21.67;;;13.63;;
13163;SDS011;6647;53.688;10.746;2022-12-10T05:56:23;19.33;;;11.05;;
13163;SDS011;6647;53.688;10.746;2022-12-10T05:57:44;19.48;;;11.98;;
13163;SDS011;6647;53.688;10.746;2022-12-10T05:59:05;19.60;;;11.63;;
13163;SDS011;6647;53.688;10.746;2022-12-10T06:00:27;23.48;;;12.10;;
13163;SDS011;6647;53.688;10.746;2022-12-10T06:01:48;26.13;;;12.30;;
13163;SDS011;6647;53.688;10.746;2022-12-10T06:03:09;22.90;;;11.50;;
13163;SDS011;6647;53.688;10.746;2022-12-10T06:04:30;21.33;;;11.80;;
13163;SDS011;6647;53.688;10.746;2022-12-10T06:05:51;22.38;;;12.52;;
13163;SDS011;6647;53.688;10.746;2022-12-10T06:07:11;22.85;;;12.57;;
13163;SDS011;6647;53.688;10.746;2022-12-10T06:08:33;26.20;;;13.25;;
13163;SDS011;6647;53.688;10.746;2022-12-10T06:09:54;30.98;;;12.85;;
13163;SDS011;6647;53.688;10.746;2022-12-10T06:11:15;23.90;;;12.60;;
13163;SDS011;6647;53.688;10.746;2022-12-10T06:12:37;23.02;;;12.65;;
13163;SDS011;6647;53.688;10.746;2022-12-10T06:13:58;25.80;;;12.98;;
13163;SDS011;6647;53.688;10.746;2022-12-10T06:15:19;23.25;;;12.38;;
13163;SDS011;6647;53.688;10.746;2022-12-10T06:16:41;21.45;;;12.00;;
13163;SDS011;6647;53.688;10.746;2022-12-10T06:18:02;27.77;;;13.43;;
13163;SDS011;6647;53.688;10.746;2022-12-10T06:19:23;24.67;;;13.57;;
13163;SDS011;6647;53.688;10.746;2022-12-10T06:20:44;26.60;;;14.20;;
13163;SDS011;6647;53.688;10.746;2022-12-10T06:22:05;27.42;;;14.85;;
13163;SDS011;6647;53.688;10.746;2022-12-10T06:23:26;24.58;;;13.55;;
13163;SDS011;6647;53.688;10.746;2022-12-10T06:24:47;23.13;;;12.70;;
13163;SDS011;6647;53.688;10.746;2022-12-10T06:26:09;23.67;;;12.88;;
13163;SDS011;6647;53.688;10.746;2022-12-10T06:27:34;20.67;;;12.13;;
13163;SDS011;6647;53.688;10.746;2022-12-10T06:28:55;20.35;;;12.20;;
13163;SDS011;6647;53.688;10.746;2022-12-10T06:30:16;23.73;;;12.82;;
13163;SDS011;6647;53.688;10.746;2022-12-10T06:31:37;23.40;;;12.02;;
13163;SDS011;6647;53.688;10.746;2022-12-10T06:32:58;20.52;;;13.02;;
13163;SDS011;6647;53.688;10.746;2022-12-10T06:34:19;22.10;;;12.27;;
13163;SDS011;6647;53.688;10.746;2022-12-10T06:35:40;22.85;;;12.13;;
13163;SDS011;6647;53.688;10.746;2022-12-10T06:37:01;20.13;;;11.13;;
13163;SDS011;6647;53.688;10.746;2022-12-10T06:38:21;19.73;;;11.88;;
13163;SDS011;6647;53.688;10.746;2022-12-10T06:39:42;19.13;;;11.18;;
13163;SDS011;6647;53.688;10.746;2022-12-10T06:41:04;23.95;;;12.77;;
13163;SDS011;6647;53.688;10.746;2022-12-10T06:42:26;26.83;;;13.57;;
13163;SDS011;6647;53.688;10.746;2022-12-10T06:43:47;23.48;;;12.57;;
13163;SDS011;6647;53.688;10.746;2022-12-10T06:45:09;22.00;;;12.35;;
13163;SDS011;6647;53.688;10.746;2022-12-10T06:46:30;22.17;;;12.10;;
13163;SDS011;6647;53.688;10.746;2022-12-10T06:47:51;24.73;;;12.48;;
13163;SDS011;6647;53.688;10.746;2022-12-10T06:49:12;22.50;;;12.82;;
13163;SDS011;6647;53.688;10.746;2022-12-10T06:50:32;23.75;;;12.30;;
13163;SDS011;6647;53.688;10.746;2022-12-10T06:51:54;25.23;;;14.05;;
13163;SDS011;6647;53.688;10.746;2022-12-10T06:53:15;24.92;;;13.23;;
13163;SDS011;6647;53.688;10.746;2022-12-10T06:54:36;26.00;;;13.48;;
13163;SDS011;6647;53.688;10.746;2022-12-10T06:56:00;25.45;;;13.98;;
13163;SDS011;6647;53.688;10.746;2022-12-10T06:57:21;25.48;;;13.07;;
13163;SDS011;6647;53.688;10.746;2022-12-10T06:58:43;26.92;;;13.32;;
13163;SDS011;6647;53.688;10.746;2022-12-10T07:00:04;30.38;;;13.13;;
13163;SDS011;6647;53.688;10.746;2022-12-10T07:01:25;30.45;;;14.10;;
13163;SDS011;6647;53.688;10.746;2022-12-10T07:02:46;23.27;;;12.65;;
13163;SDS011;6647;53.688;10.746;2022-12-10T07:04:08;27.98;;;13.45;;
13163;SDS011;6647;53.688;10.746;2022-12-10T07:05:29;30.05;;;13.13;;
13163;SDS011;6647;53.688;10.746;2022-12-10T07:06:50;25.92;;;13.25;;
13163;SDS011;6647;53.688;10.746;2022-12-10T07:08:11;24.38;;;13.52;;
13163;SDS011;6647;53.688;10.746;2022-12-10T07:09:32;24.77;;;13.45;;
13163;SDS011;6647;53.688;10.746;2022-12-10T07:10:54;23.30;;;11.80;;
13163;SDS011;6647;53.688;10.746;2022-12-10T07:12:15;25.25;;;13.48;;
13163;SDS011;6647;53.688;10.746;2022-12-10T07:13:36;21.67;;;11.88;;
13163;SDS011;6647;53.688;10.746;2022-12-10T07:14:58;20.35;;;11.02;;
13163;SDS011;6647;53.688;10.746;2022-12-10T07:16:23;22.15;;;11.52;;
13163;SDS011;6647;53.688;10.746;2022-12-10T07:17:49;21.17;;;12.25;;
13163;SDS011;6647;53.688;10.746;2022-12-10T07:19:11;21.77;;;11.40;;
13163;SDS011;6647;53.688;10.746;2022-12-10T07:20:33;23.52;;;11.55;;
13163;SDS011;6647;53.688;10.746;2022-12-10T07:21:53;23.17;;;12.52;;
13163;SDS011;6647;53.688;10.746;2022-12-10T07:23:14;20.45;;;10.88;;
13163;SDS011;6647;53.688;10.746;2022-12-10T07:24:35;21.58;;;10.57;;
13163;SDS011;6647;53.688;10.746;2022-12-10T07:25:56;24.33;;;13.57;;
13163;SDS011;6647;53.688;10.746;2022-12-10T07:27:17;22.50;;;13.00;;
13163;SDS011;6647;53.688;10.746;2022-12-10T07:28:38;24.10;;;12.10;;
13163;SDS011;6647;53.688;10.746;2022-12-10T07:29:59;20.77;;;12.13;;
13163;SDS011;6647;53.688;10.746;2022-12-10T07:31:20;23.25;;;11.95;;
13163;SDS011;6647;53.688;10.746;2022-12-10T07:32:42;21.48;;;11.80;;
13163;SDS011;6647;53.688;10.746;2022-12-10T07:34:03;22.23;;;11.32;;
13163;SDS011;6647;53.688;10.746;2022-12-10T07:35:24;22.95;;;11.88;;
13163;SDS011;6647;53.688;10.746;2022-12-10T07:36:44;18.77;;;9.35;;
13163;SDS011;6647;53.688;10.746;2022-12-10T07:38:05;17.27;;;10.07;;
13163;SDS011;6647;53.688;10.746;2022-12-10T07:39:26;19.88;;;10.27;;
13163;SDS011;6647;53.688;10.746;2022-12-10T07:40:47;31.98;;;10.70;;
13163;SDS011;6647;53.688;10.746;2022-12-10T07:42:08;18.70;;;9.82;;
13163;SDS011;6647;53.688;10.746;2022-12-10T07:43:29;20.23;;;10.10;;
13163;SDS011;6647;53.688;10.746;2022-12-10T07:44:50;17.80;;;10.85;;
13163;SDS011;6647;53.688;10.746;2022-12-10T07:46:15;18.17;;;10.13;;
13163;SDS011;6647;53.688;10.746;2022-12-10T07:47:39;21.60;;;10.48;;
13163;SDS011;6647;53.688;10.746;2022-12-10T07:49:02;21.85;;;10.60;;
13163;SDS011;6647;53.688;10.746;2022-12-10T07:50:23;19.65;;;10.73;;
13163;SDS011;6647;53.688;10.746;2022-12-10T07:51:47;20.55;;;10.18;;
13163;SDS011;6647;53.688;10.746;2022-12-10T07:53:09;23.55;;;10.95;;
13163;SDS011;6647;53.688;10.746;2022-12-10T07:54:30;20.67;;;11.07;;
13163;SDS011;6647;53.688;10.746;2022-12-10T07:55:51;19.38;;;11.10;;
13163;SDS011;6647;53.688;10.746;2022-12-10T07:57:12;21.48;;;11.75;;
13163;SDS011;6647;53.688;10.746;2022-12-10T07:58:34;22.80;;;10.95;;
13163;SDS011;6647;53.688;10.746;2022-12-10T07:59:55;18.98;;;9.75;;
13163;SDS011;6647;53.688;10.746;2022-12-10T08:01:17;21.15;;;11.20;;
13163;SDS011;6647;53.688;10.746;2022-12-10T08:02:40;19.60;;;10.45;;
13163;SDS011;6647;53.688;10.746;2022-12-10T08:04:01;19.58;;;11.43;;
13163;SDS011;6647;53.688;10.746;2022-12-10T08:05:22;20.63;;;11.35;;
13163;SDS011;6647;53.688;10.746;2022-12-10T08:06:43;20.70;;;12.05;;
13163;SDS011;6647;53.688;10.746;2022-12-10T08:08:04;18.25;;;9.90;;
13163;SDS011;6647;53.688;10.746;2022-12-10T08:09:25;19.27;;;10.38;;
13163;SDS011;6647;53.688;10.746;2022-12-10T08:10:46;23.58;;;11.30;;
13163;SDS011;6647;53.688;10.746;2022-12-10T08:12:07;26.33;;;12.13;;
13163;SDS011;6647;53.688;10.746;2022-12-10T08:13:28;24.52;;;11.32;;
13163;SDS011;6647;53.688;10.746;2022-12-10T08:14:49;21.45;;;12.10;;
13163;SDS011;6647;53.688;10.746;2022-12-10T08:16:14;18.02;;;9.88;;
13163;SDS011;6647;53.688;10.746;2022-12-10T08:17:39;23.23;;;10.13;;
13163;SDS011;6647;53.688;10.746;2022-12-10T08:19:00;21.73;;;12.40;;
13163;SDS011;6647;53.688;10.746;2022-12-10T08:20:22;17.88;;;10.05;;
13163;SDS011;6647;53.688;10.746;2022-12-10T08:21:43;22.42;;;11.05;;
13163;SDS011;6647;53.688;10.746;2022-12-10T08:23:04;17.67;;;9.73;;